Appleby, South Dakota
Current Conditions -  °F | °C
As of 4:53 PM on Thursday 18 Dec 2014 (Local Time) from KATY Reporting Station
Overcast Overcast  
Wind Chill: 16°   Ceiling: 1100
Heat Index: 24°   Visibility: 10mi
Dew Point: 20°   Wind: 7mph
Humidity: 84%   Direction: 170°S
Pressure: 30.13"   Gusts: NA
Location:  44.9156°N, 97.1699°W
Report Text: KATY 182253Z AUTO 17006KT 10SM OVC011 M04/M07 A3013 RMK AO2 SLP233 T10441067
Loading
Personal Weather Stations






























Interactive Weather Map New forecast layout! Learn more

10-Day Weather Forecast

Advertisements
Track Severe Weather on mobile